createdAt,value
2022-08-10T00:02:17.211Z,15.38
2022-08-10T00:04:45.852Z,15.26
2022-08-10T00:07:15.789Z,15.22
2022-08-10T00:09:50.839Z,15.19
2022-08-10T00:12:20.695Z,15.16
2022-08-10T00:14:49.532Z,15.09
2022-08-10T00:17:18.259Z,15.13
2022-08-10T00:20:03.809Z,15.34
2022-08-10T00:22:37.109Z,15.43
2022-08-10T00:25:21.716Z,15.40
2022-08-10T00:28:03.042Z,15.34
2022-08-10T00:30:32.835Z,15.69
2022-08-10T00:33:01.747Z,15.92
2022-08-10T00:35:30.424Z,15.98
2022-08-10T00:38:00.396Z,15.83
2022-08-10T00:40:36.911Z,15.49
2022-08-10T00:43:07.335Z,15.48
2022-08-10T00:45:36.537Z,15.39
2022-08-10T00:48:05.863Z,15.32
2022-08-10T00:50:35.063Z,15.40
2022-08-10T00:53:05.457Z,15.10
2022-08-10T00:57:12.822Z,14.87
2022-08-10T00:58:24.664Z,14.80
2022-08-10T01:00:54.803Z,14.76
2022-08-10T01:04:39.692Z,14.72
2022-08-10T01:06:33.004Z,14.71
2022-08-10T01:09:16.201Z,14.78
2022-08-10T01:12:38.996Z,14.94
2022-08-10T01:14:57.065Z,15.02
2022-08-10T01:17:50.475Z,15.08
2022-08-10T01:20:34.800Z,15.12
2022-08-10T01:24:01.626Z,15.12
2022-08-10T01:26:57.743Z,15.06
2022-08-10T01:29:55.199Z,14.94
2022-08-10T01:32:35.783Z,14.88
2022-08-10T01:35:13.530Z,14.52
2022-08-10T01:37:53.322Z,14.33
2022-08-10T01:40:28.537Z,14.26
2022-08-10T01:43:08.611Z,14.16
2022-08-10T01:45:46.237Z,14.18
2022-08-10T01:48:31.220Z,14.26
2022-08-10T01:51:12.041Z,14.27
2022-08-10T01:53:51.931Z,14.27
2022-08-10T01:56:25.784Z,14.30
2022-08-10T01:58:59.278Z,14.35
2022-08-10T02:01:34.554Z,14.43
2022-08-10T02:04:09.468Z,14.46
2022-08-10T02:06:45.430Z,14.49
2022-08-10T02:09:21.174Z,14.56
2022-08-10T02:12:07.735Z,14.59
2022-08-10T02:14:43.679Z,14.46
2022-08-10T02:17:59.032Z,14.67
2022-08-10T02:20:16.470Z,14.67
2022-08-10T02:22:50.139Z,14.69
2022-08-10T02:25:41.674Z,14.71
2022-08-10T02:28:30.422Z,14.71
2022-08-10T02:31:06.388Z,14.71
2022-08-10T02:33:45.616Z,14.74
2022-08-10T02:36:32.519Z,14.71
2022-08-10T02:39:07.124Z,14.73
2022-08-10T02:42:18.191Z,14.73
2022-08-10T02:45:19.060Z,14.72
2022-08-10T02:47:46.657Z,14.69
2022-08-10T02:50:29.449Z,14.67
2022-08-10T02:53:06.750Z,14.52
2022-08-10T02:55:58.695Z,14.43
2022-08-10T02:58:34.788Z,14.34
2022-08-10T03:01:10.394Z,14.31
2022-08-10T03:03:48.318Z,14.39
2022-08-10T03:06:24.566Z,14.47
2022-08-10T03:08:56.176Z,14.52
2022-08-10T03:12:35.314Z,14.48
2022-08-10T03:14:21.399Z,14.50
2022-08-10T03:16:53.110Z,14.41
2022-08-10T03:20:35.314Z,14.33
2022-08-10T03:22:17.831Z,14.32
2022-08-10T03:24:48.122Z,14.28
2022-08-10T03:27:18.438Z,14.22
2022-08-10T03:30:23.459Z,14.26
2022-08-10T03:32:39.454Z,14.28
2022-08-10T03:35:10.943Z,14.22
2022-08-10T03:37:41.695Z,14.19
2022-08-10T03:40:11.444Z,14.16
2022-08-10T03:42:42.372Z,14.13
2022-08-10T03:45:11.951Z,14.14
2022-08-10T03:47:44.044Z,14.18
2022-08-10T03:50:45.392Z,14.29
2022-08-10T03:53:05.564Z,14.47
2022-08-10T03:56:27.416Z,14.68
2022-08-10T03:58:23.980Z,14.56
2022-08-10T04:00:53.198Z,14.51
2022-08-10T04:03:22.969Z,14.45
2022-08-10T04:05:59.395Z,14.48
2022-08-10T04:08:29.674Z,14.54
2022-08-10T04:10:58.483Z,14.58
2022-08-10T04:13:27.151Z,14.73
2022-08-10T04:15:55.674Z,14.84
2022-08-10T04:18:24.405Z,15.01
2022-08-10T04:21:00.643Z,15.23
2022-08-10T04:23:35.560Z,15.57
2022-08-10T04:26:05.060Z,15.53
2022-08-10T04:28:34.733Z,15.55
2022-08-10T04:31:07.570Z,16.10
2022-08-10T04:33:43.153Z,16.39
2022-08-10T04:36:14.926Z,16.37
2022-08-10T04:38:47.370Z,16.77
2022-08-10T04:41:17.526Z,16.50
2022-08-10T04:43:47.385Z,16.78
2022-08-10T04:46:55.726Z,16.79
2022-08-10T04:49:05.414Z,16.54
2022-08-10T04:51:54.123Z,17.07
2022-08-10T04:54:25.414Z,16.77
2022-08-10T04:56:58.434Z,17.21
2022-08-10T04:59:27.327Z,17.66
2022-08-10T05:02:28.332Z,17.09
2022-08-10T05:04:44.814Z,17.24
2022-08-10T05:07:18.459Z,17.48
2022-08-10T05:10:03.164Z,17.70
2022-08-10T05:12:37.379Z,17.34
2022-08-10T05:15:10.517Z,17.81
2022-08-10T05:17:40.774Z,18.31
2022-08-10T05:20:12.437Z,17.88
2022-08-10T05:22:44.122Z,18.36
2022-08-10T05:25:21.152Z,18.52
2022-08-10T05:27:51.045Z,18.37
2022-08-10T05:30:23.804Z,18.61
2022-08-10T05:32:58.634Z,18.63
2022-08-10T05:35:56.626Z,18.17
2022-08-10T05:38:24.409Z,18.35
2022-08-10T05:40:57.050Z,18.63
2022-08-10T05:43:26.338Z,19.01
2022-08-10T05:46:17.522Z,19.56
2022-08-10T05:48:59.182Z,19.14
2022-08-10T05:51:31.342Z,18.88
2022-08-10T05:54:05.997Z,19.59
2022-08-10T05:56:56.380Z,18.84
2022-08-10T06:00:12.634Z,19.00
2022-08-10T06:02:30.767Z,19.02
2022-08-10T06:05:08.947Z,20.42
2022-08-10T06:07:43.682Z,19.57
2022-08-10T06:10:28.614Z,19.53
2022-08-10T06:13:30.719Z,19.33
2022-08-10T06:16:08.579Z,20.11
2022-08-10T06:18:38.228Z,20.11
2022-08-10T06:21:09.673Z,19.62
2022-08-10T06:23:40.040Z,19.44
2022-08-10T06:26:14.159Z,19.33
2022-08-10T06:29:03.636Z,20.93
2022-08-10T06:31:48.165Z,20.86
2022-08-10T06:34:25.529Z,20.29
2022-08-10T06:36:58.509Z,21.40
2022-08-10T06:39:36.332Z,21.57
2022-08-10T06:42:18.310Z,20.58
2022-08-10T06:44:57.770Z,21.38
2022-08-10T06:47:34.839Z,21.11
2022-08-10T06:50:13.494Z,22.06
2022-08-10T06:52:44.226Z,22.33
2022-08-10T06:55:18.646Z,21.36
2022-08-10T06:58:00.088Z,21.39
2022-08-10T07:00:34.638Z,22.81
2022-08-10T07:03:11.927Z,23.17
2022-08-10T07:05:51.031Z,23.67
2022-08-10T07:08:24.184Z,23.62
2022-08-10T07:10:55.709Z,23.77
2022-08-10T07:14:15.733Z,25.18
2022-08-10T07:16:18.797Z,25.03
2022-08-10T07:18:50.492Z,25.16
2022-08-10T07:21:20.044Z,26.75
2022-08-10T07:23:57.559Z,26.50
2022-08-10T07:26:31.620Z,25.26
2022-08-10T07:29:01.816Z,25.17
2022-08-10T07:31:55.750Z,25.34
2022-08-10T07:34:29.397Z,25.33
2022-08-10T07:37:05.625Z,25.23
2022-08-10T07:39:58.446Z,27.08
2022-08-10T07:42:31.319Z,28.39
2022-08-10T07:45:01.005Z,28.30
2022-08-10T07:47:52.379Z,28.22
2022-08-10T07:50:26.606Z,29.57
2022-08-10T07:53:01.281Z,28.90
2022-08-10T07:56:04.785Z,29.74
2022-08-10T07:58:25.247Z,31.13
2022-08-10T08:00:57.158Z,33.25
2022-08-10T08:03:30.553Z,31.95
2022-08-10T08:06:03.211Z,31.15
2022-08-10T08:08:36.379Z,29.35
2022-08-10T08:11:07.404Z,29.57
2022-08-10T08:13:39.975Z,30.21
2022-08-10T08:16:17.455Z,31.14
2022-08-10T08:19:23.632Z,31.39
2022-08-10T08:24:06.550Z,30.17
2022-08-10T08:24:37.279Z,29.32
2022-08-10T08:27:07.857Z,29.42
2022-08-10T08:29:42.057Z,27.97
2022-08-10T08:32:12.619Z,26.76
2022-08-10T08:34:46.220Z,25.69
2022-08-10T08:38:31.410Z,27.51
2022-08-10T08:40:15.252Z,29.89
2022-08-10T08:43:16.675Z,30.79
2022-08-10T08:46:28.579Z,29.98
2022-08-10T08:50:04.577Z,30.11
2022-08-10T08:52:22.683Z,29.14
2022-08-10T08:56:04.155Z,28.05
2022-08-10T08:58:31.416Z,28.32
2022-08-10T09:01:24.493Z,27.67
2022-08-10T09:04:28.736Z,28.19
2022-08-10T09:07:59.092Z,30.35
2022-08-10T09:10:27.247Z,31.94
2022-08-10T09:13:06.181Z,31.93
2022-08-10T09:15:41.690Z,32.86
2022-08-10T09:18:25.068Z,32.89
2022-08-10T09:21:02.040Z,33.01
2022-08-10T09:24:05.009Z,32.64
2022-08-10T09:26:46.722Z,30.71
2022-08-10T09:29:26.326Z,29.17
2022-08-10T09:36:13.677Z,30.05
2022-08-10T09:36:23.684Z,31.45
2022-08-10T09:38:12.421Z,31.55
2022-08-10T09:41:00.498Z,29.24
2022-08-10T09:43:44.693Z,28.96
2022-08-10T09:46:33.374Z,29.19
2022-08-10T09:49:18.411Z,28.67
2022-08-10T09:52:10.808Z,28.17
2022-08-10T09:54:55.540Z,27.31
2022-08-10T09:57:41.453Z,26.64
2022-08-10T10:00:17.117Z,26.47
2022-08-10T10:03:15.003Z,25.66
2022-08-10T10:05:58.711Z,25.74
2022-08-10T10:08:40.742Z,25.80
2022-08-10T10:11:22.125Z,27.94
2022-08-10T10:14:12.278Z,29.47
2022-08-10T10:16:58.209Z,30.29
2022-08-10T10:19:49.425Z,30.21
2022-08-10T10:22:53.416Z,32.00
2022-08-10T10:25:50.830Z,32.23
2022-08-10T10:29:15.232Z,33.19
2022-08-10T10:31:37.177Z,32.59
2022-08-10T10:34:19.034Z,32.32
2022-08-10T10:36:52.232Z,31.31
2022-08-10T10:39:26.778Z,31.08
2022-08-10T10:42:18.582Z,31.83
2022-08-10T10:45:16.402Z,30.99
2022-08-10T10:48:09.330Z,30.22
2022-08-10T10:51:03.320Z,29.52
2022-08-10T10:53:45.136Z,28.60
2022-08-10T10:56:26.221Z,28.09
2022-08-10T10:59:53.387Z,27.16
2022-08-10T11:02:12.778Z,26.60
2022-08-10T11:05:04.808Z,26.15
2022-08-10T11:07:41.243Z,26.02
2022-08-10T11:10:32.083Z,25.48
2022-08-10T11:14:24.500Z,25.68
2022-08-10T11:16:17.960Z,25.68
2022-08-10T11:18:57.586Z,25.69
2022-08-10T11:21:46.650Z,26.21
2022-08-10T11:24:47.310Z,26.61
2022-08-10T11:27:33.127Z,27.39
2022-08-10T11:30:10.665Z,27.56
2022-08-10T11:32:55.869Z,27.72
2022-08-10T11:35:37.325Z,27.73
2022-08-10T11:38:32.957Z,27.47
2022-08-10T11:42:11.812Z,27.14
2022-08-10T11:44:27.392Z,26.55
2022-08-10T11:47:04.216Z,26.25
2022-08-10T11:49:46.238Z,26.39
2022-08-10T11:52:24.242Z,26.06
2022-08-10T11:54:56.804Z,26.36
2022-08-10T11:57:54.000Z,26.26
2022-08-10T12:00:21.208Z,26.60
2022-08-10T12:02:56.392Z,26.46
2022-08-10T12:05:51.663Z,25.85
2022-08-10T12:10:08.702Z,26.16
2022-08-10T12:11:23.911Z,26.05
2022-08-10T12:14:21.959Z,25.94
2022-08-10T12:17:01.045Z,25.91
2022-08-10T12:19:59.040Z,25.87
2022-08-10T12:22:37.408Z,25.23
2022-08-10T12:25:49.575Z,25.54
2022-08-10T12:28:15.727Z,25.35
2022-08-10T12:30:53.012Z,25.31
2022-08-10T12:33:28.318Z,25.54
2022-08-10T12:36:18.421Z,24.93
2022-08-10T12:39:02.082Z,25.65
2022-08-10T12:41:44.836Z,25.84
2022-08-10T12:44:23.709Z,25.92
2022-08-10T12:47:23.174Z,25.79
2022-08-10T12:50:29.909Z,25.74
2022-08-10T12:53:06.703Z,25.02
2022-08-10T12:55:39.613Z,25.91
2022-08-10T12:58:56.784Z,25.81
2022-08-10T13:01:22.336Z,25.81
2022-08-10T13:04:21.634Z,26.62
2022-08-10T13:06:50.413Z,26.44
2022-08-10T13:09:24.849Z,25.90
2022-08-10T13:12:38.160Z,25.85
2022-08-10T13:14:57.135Z,26.00
2022-08-10T13:17:39.546Z,26.57
2022-08-10T13:20:21.461Z,26.74
2022-08-10T13:22:55.785Z,26.64
2022-08-10T13:25:32.874Z,26.23
2022-08-10T13:28:37.531Z,26.49
2022-08-10T13:30:58.767Z,25.82
2022-08-10T13:34:39.143Z,26.10
2022-08-10T13:36:31.930Z,26.00
2022-08-10T13:39:03.505Z,25.80
2022-08-10T13:41:39.915Z,25.97
2022-08-10T13:44:13.802Z,25.12
2022-08-10T13:46:51.047Z,25.36
2022-08-10T13:49:22.566Z,25.45
2022-08-10T13:51:58.225Z,25.31
2022-08-10T13:54:37.329Z,24.92
2022-08-10T13:57:07.859Z,25.36
2022-08-10T14:00:35.449Z,25.86
2022-08-10T14:02:35.233Z,26.44
2022-08-10T14:05:08.352Z,26.75
2022-08-10T14:07:53.541Z,27.34
2022-08-10T14:11:08.806Z,26.63
2022-08-10T14:13:29.930Z,27.63
2022-08-10T14:16:00.798Z,27.50
2022-08-10T14:18:34.979Z,27.00
2022-08-10T14:21:05.912Z,27.35
2022-08-10T14:23:42.330Z,27.33
2022-08-10T14:26:24.365Z,27.23
2022-08-10T14:28:58.201Z,26.65
2022-08-10T14:31:35.515Z,26.46
2022-08-10T14:34:08.913Z,27.57
2022-08-10T14:36:46.928Z,27.33
2022-08-10T14:39:26.322Z,27.46
2022-08-10T14:42:05.429Z,27.28
2022-08-10T14:44:48.617Z,26.64
2022-08-10T14:47:53.791Z,26.92
2022-08-10T14:50:31.482Z,26.64
2022-08-10T14:53:10.061Z,25.43
2022-08-10T14:55:58.894Z,25.72
2022-08-10T14:58:35.880Z,25.83
2022-08-10T15:01:09.244Z,26.07
2022-08-10T15:04:00.953Z,25.98
2022-08-10T15:06:38.088Z,25.98
2022-08-10T15:09:19.293Z,25.93
2022-08-10T15:12:14.803Z,24.92
2022-08-10T15:14:45.804Z,25.48
2022-08-10T15:17:26.441Z,24.89
2022-08-10T15:20:04.312Z,25.46
2022-08-10T15:22:50.171Z,24.66
2022-08-10T15:25:26.011Z,25.31
2022-08-10T15:28:05.278Z,24.82
2022-08-10T15:30:42.875Z,24.97
2022-08-10T15:34:02.653Z,24.88
2022-08-10T15:36:44.752Z,25.23
2022-08-10T15:40:25.359Z,25.93
2022-08-10T15:42:21.279Z,26.25
2022-08-10T15:44:53.584Z,25.19
2022-08-10T15:47:28.101Z,25.49
2022-08-10T15:50:22.970Z,25.65
2022-08-10T15:53:02.355Z,26.02
2022-08-10T15:55:43.375Z,25.86
2022-08-10T15:58:37.717Z,26.22
2022-08-10T16:02:13.817Z,26.35
2022-08-10T16:04:09.199Z,26.56
2022-08-10T16:06:44.750Z,26.58
2022-08-10T16:10:22.196Z,26.79
2022-08-10T16:12:29.450Z,25.91
2022-08-10T16:15:08.130Z,25.14
2022-08-10T16:17:54.663Z,25.74
2022-08-10T16:20:31.403Z,26.47
2022-08-10T16:23:09.904Z,26.48
2022-08-10T16:25:48.274Z,26.26
2022-08-10T16:28:30.336Z,26.38
2022-08-10T16:31:05.229Z,25.57
2022-08-10T16:33:53.562Z,24.73
2022-08-10T16:36:32.282Z,25.21
2022-08-10T16:39:03.013Z,25.39
2022-08-10T16:42:03.232Z,24.51
2022-08-10T16:44:30.569Z,24.68
2022-08-10T16:47:03.318Z,24.19
2022-08-10T16:49:39.723Z,24.53
2022-08-10T16:52:12.068Z,23.98
2022-08-10T16:54:44.048Z,24.22
2022-08-10T16:57:21.619Z,24.00
2022-08-10T16:59:55.886Z,24.13
2022-08-10T17:02:28.537Z,24.01
2022-08-10T17:05:01.628Z,23.86
2022-08-10T17:07:33.863Z,23.88
2022-08-10T17:10:08.025Z,23.60
2022-08-10T17:12:41.224Z,23.25
2022-08-10T17:15:11.815Z,23.50
2022-08-10T17:17:48.130Z,23.29
2022-08-10T17:20:30.601Z,22.95
2022-08-10T17:23:11.161Z,22.63
2022-08-10T17:25:45.916Z,22.76
2022-08-10T17:28:32.857Z,22.48
2022-08-10T17:31:23.610Z,22.71
2022-08-10T17:34:12.042Z,22.32
2022-08-10T17:36:46.528Z,22.08
2022-08-10T17:39:21.253Z,21.82
2022-08-10T17:41:55.290Z,21.65
2022-08-10T17:44:25.505Z,21.53
2022-08-10T17:46:55.849Z,21.40
2022-08-10T17:49:27.062Z,21.30
2022-08-10T17:52:02.650Z,21.31
2022-08-10T17:54:34.843Z,21.24
2022-08-10T17:57:10.753Z,21.06
2022-08-10T17:59:42.047Z,20.88
2022-08-10T18:02:15.900Z,20.76
2022-08-10T18:04:53.015Z,20.75
2022-08-10T18:07:29.134Z,20.63
2022-08-10T18:10:01.515Z,20.44
2022-08-10T18:12:40.419Z,20.36
2022-08-10T18:15:13.660Z,20.27
2022-08-10T18:17:47.971Z,20.22
2022-08-10T18:20:27.769Z,20.15
2022-08-10T18:22:59.326Z,20.07
2022-08-10T18:25:33.194Z,20.03
2022-08-10T18:28:09.167Z,19.88
2022-08-10T18:30:48.677Z,19.76
2022-08-10T18:33:22.071Z,19.67
2022-08-10T18:35:54.433Z,19.57
2022-08-10T18:38:25.689Z,19.49
2022-08-10T18:41:08.219Z,19.40
2022-08-10T18:44:07.451Z,19.32
2022-08-10T18:46:46.182Z,19.23
2022-08-10T18:49:29.913Z,19.18
2022-08-10T18:52:04.688Z,19.13
2022-08-10T18:54:44.647Z,19.02
2022-08-10T18:57:32.358Z,18.98
2022-08-10T19:00:10.560Z,18.90
2022-08-10T19:03:18.928Z,18.80
2022-08-10T19:06:14.073Z,18.73
2022-08-10T19:09:47.563Z,18.73
2022-08-10T19:12:33.065Z,18.64
2022-08-10T19:15:16.975Z,18.57
2022-08-10T19:18:06.094Z,18.55
2022-08-10T19:20:44.845Z,18.43
2022-08-10T19:23:38.783Z,18.38
2022-08-10T19:26:44.341Z,18.32
2022-08-10T19:30:05.012Z,18.31
2022-08-10T19:32:39.763Z,18.26
2022-08-10T19:35:21.501Z,18.26
2022-08-10T19:38:06.949Z,18.13
2022-08-10T19:41:00.471Z,18.07
2022-08-10T19:44:00.329Z,18.07
2022-08-10T19:46:42.010Z,18.02
2022-08-10T19:49:32.213Z,18.01
2022-08-10T19:52:22.611Z,17.94
2022-08-10T19:55:04.973Z,17.94
2022-08-10T19:57:45.237Z,17.89
2022-08-10T20:00:22.941Z,17.88
2022-08-10T20:03:18.042Z,17.91
2022-08-10T20:06:17.896Z,17.81
2022-08-10T20:08:56.692Z,17.78
2022-08-10T20:11:45.057Z,17.70
2022-08-10T20:14:23.471Z,17.64
2022-08-10T20:17:10.794Z,17.52
2022-08-10T20:19:54.852Z,17.60
2022-08-10T20:22:30.408Z,17.57
2022-08-10T20:25:11.488Z,17.50
2022-08-10T20:28:00.331Z,17.53
2022-08-10T20:30:35.706Z,17.54
2022-08-10T20:33:13.324Z,17.47
2022-08-10T20:35:51.175Z,17.43
2022-08-10T20:38:29.454Z,17.39
2022-08-10T20:41:13.202Z,17.38
2022-08-10T20:43:57.591Z,17.36
2022-08-10T20:46:33.670Z,17.35
2022-08-10T20:49:28.145Z,17.31
2022-08-10T20:52:02.343Z,17.29
2022-08-10T20:54:35.893Z,17.23
2022-08-10T20:57:54.856Z,17.22
2022-08-10T21:00:25.188Z,17.08
2022-08-10T21:03:43.749Z,17.07
2022-08-10T21:06:43.388Z,16.99
2022-08-10T21:09:34.510Z,16.97
2022-08-10T21:13:09.171Z,16.89
2022-08-10T21:15:56.219Z,16.89
2022-08-10T21:18:46.823Z,16.91
2022-08-10T21:22:04.115Z,16.81
2022-08-10T21:24:59.429Z,16.89
2022-08-10T21:27:59.005Z,16.85
2022-08-10T21:30:44.926Z,16.79
2022-08-10T21:33:22.705Z,16.75
2022-08-10T21:35:57.203Z,16.79
2022-08-10T21:38:37.227Z,16.77
2022-08-10T21:41:57.529Z,16.65
2022-08-10T21:45:17.098Z,16.52
2022-08-10T21:48:18.729Z,16.45
2022-08-10T21:51:16.408Z,16.50
2022-08-10T21:54:26.494Z,16.51
2022-08-10T21:57:24.593Z,16.41
2022-08-10T22:03:25.812Z,16.18
2022-08-10T22:06:28.870Z,16.13
2022-08-10T22:09:26.402Z,16.11
2022-08-10T22:12:30.808Z,16.10
2022-08-10T22:16:03.817Z,16.11
2022-08-10T22:18:53.876Z,16.03
2022-08-10T22:22:20.046Z,16.04
2022-08-10T22:25:39.734Z,15.99
2022-08-10T22:28:26.098Z,15.93
2022-08-10T22:34:58.945Z,15.88
2022-08-10T22:37:59.839Z,15.81
2022-08-10T22:41:02.981Z,15.80
2022-08-10T22:43:53.119Z,15.75
2022-08-10T22:46:44.504Z,15.74
2022-08-10T22:49:12.657Z,15.73
2022-08-10T22:51:54.895Z,15.69
2022-08-10T22:54:50.140Z,15.65
2022-08-10T22:57:38.683Z,15.58
2022-08-10T23:00:15.075Z,15.54
2022-08-10T23:02:54.211Z,15.52
2022-08-10T23:05:33.611Z,15.50
2022-08-10T23:08:29.421Z,15.43
2022-08-10T23:11:07.064Z,15.40
2022-08-10T23:13:45.340Z,15.40
2022-08-10T23:16:37.878Z,15.34
2022-08-10T23:19:17.159Z,15.41
2022-08-10T23:22:04.741Z,15.34
2022-08-10T23:24:39.089Z,15.32
2022-08-10T23:27:38.488Z,15.34
2022-08-10T23:30:11.213Z,15.35
2022-08-10T23:32:52.124Z,15.36
2022-08-10T23:36:30.597Z,15.39
2022-08-10T23:38:22.093Z,15.30
2022-08-10T23:40:54.829Z,15.24
2022-08-10T23:43:46.769Z,15.20
2022-08-10T23:46:25.103Z,15.22
2022-08-10T23:48:59.473Z,15.22
2022-08-10T23:51:54.590Z,15.19
2022-08-10T23:54:25.963Z,15.12
2022-08-10T23:57:01.874Z,15.18
2022-08-10T23:59:33.679Z,15.13
